PWSweather.com
Personal Weather Stations
Station Observations
KPAEXPOR2
Wellington Estates, Export, PA 15632

Wellington EstatesExport, PA 15632

Lat: 40.446, Lon: -79.592

Elevation: 1286

Station Type: PWS1000-TD

http://www.westmorelandweather.com

Latest ConditionsUpdated 4:30:00 PM EST Friday, Feb 24, 2017
Currently Today's Max Today's Min Today's Average
Temperature 74.9°F23.8°C 76.2°F24.6°C 54.8°F12.7°C 64.3°F17.9°C
Dew Point 24.1°F-4.4°C 45.3°F7.4°C 24.1°F-4.4°C 38.0°F3.3°C
Winds 9.4 mph SW15.1 kmh SW 15.9 mph S25.6 kmh S - 7.2 mph 11.6 kmh
Wind Gusts 13.0 mph20.9 kmh 22.8 mph36.7 kmh - -
Humidity 15% 66% 15% 43%
Pressure 29.75 in1007.5 mb 29.91 in1012.9 mb 29.75 in1007.5 mb -
Hour Temp Dew Point Humidity Winds Wind Gusts Pressure Precip Precip Rate Daily Precip Total
04:30 PM 74.9°F23.8°C 24.1°F-4.4°C 15% 9.4 mph SW15.1 kmh SW 13.0 mph20.9 kmh 29.75 in1007.5 mb 0.00 in0.0 mm 0.00 in0.0 mm 0.00 in0.0 mm
04:15 PM 75.3°F24.1°C 24.4°F-4.2°C 15% 10.4 mph SSW16.7 kmh SSW 13.6 mph21.9 kmh 29.75 in1007.5 mb 0.00 in0.0 mm 0.00 in0.0 mm 0.00 in0.0 mm
04:00 PM 75.5°F24.2°C 24.5°F-4.2°C 15% 11.4 mph SSW18.3 kmh SSW 19.0 mph30.6 kmh 29.75 in1007.5 mb 0.00 in0.0 mm 0.00 in0.0 mm 0.00 in0.0 mm
03:45 PM 75.8°F24.3°C 24.8°F-4.0°C 15% 12.5 mph SSW20.1 kmh SSW 21.3 mph34.3 kmh 29.76 in1007.8 mb 0.00 in0.0 mm 0.00 in0.0 mm 0.00 in0.0 mm
03:30 PM 76.0°F24.4°C 25.0°F-3.9°C 15% 14.4 mph S23.2 kmh S 20.6 mph33.2 kmh 29.77 in1008.1 mb 0.00 in0.0 mm 0.00 in0.0 mm 0.00 in0.0 mm
03:15 PM 76.0°F24.4°C 25.0°F-3.9°C 15% 11.7 mph SW18.8 kmh SW 17.4 mph28.0 kmh 29.77 in1008.1 mb 0.00 in0.0 mm 0.00 in0.0 mm 0.00 in0.0 mm
03:00 PM 75.8°F24.3°C 24.8°F-4.0°C 15% 13.8 mph SSW22.2 kmh SSW 19.7 mph31.7 kmh 29.78 in1008.5 mb 0.00 in0.0 mm 0.00 in0.0 mm 0.00 in0.0 mm
02:45 PM 76.2°F24.6°C 25.1°F-3.8°C 15% 12.6 mph S20.3 kmh S 14.5 mph23.3 kmh 29.78 in1008.5 mb 0.00 in0.0 mm 0.00 in0.0 mm 0.00 in0.0 mm
02:30 PM 75.8°F24.3°C 24.8°F-4.0°C 15% 14.5 mph S23.3 kmh S 20.6 mph33.2 kmh 29.78 in1008.5 mb 0.00 in0.0 mm 0.00 in0.0 mm 0.00 in0.0 mm
02:15 PM 75.8°F24.3°C 24.8°F-4.0°C 15% 14.0 mph S22.5 kmh S 19.0 mph30.6 kmh 29.78 in1008.5 mb 0.00 in0.0 mm 0.00 in0.0 mm 0.00 in0.0 mm
02:00 PM 75.6°F24.2°C 24.7°F-4.1°C 15% 15.3 mph S24.6 kmh S 21.3 mph34.3 kmh 29.80 in1009.1 mb 0.00 in0.0 mm 0.00 in0.0 mm 0.00 in0.0 mm
01:45 PM 74.6°F23.7°C 26.8°F-2.9°C 17% 14.5 mph S23.3 kmh S 19.0 mph30.6 kmh 29.80 in1009.1 mb 0.00 in0.0 mm 0.00 in0.0 mm 0.00 in0.0 mm
01:30 PM 75.1°F23.9°C 27.3°F-2.6°C 17% 12.8 mph S20.6 kmh S 22.1 mph35.6 kmh 29.80 in1009.1 mb 0.00 in0.0 mm 0.00 in0.0 mm 0.00 in0.0 mm
01:15 PM 74.4°F23.6°C 28.1°F-2.2°C 18% 15.9 mph S25.6 kmh S 22.8 mph36.7 kmh 29.82 in1009.8 mb 0.00 in0.0 mm 0.00 in0.0 mm 0.00 in0.0 mm
01:00 PM 74.0°F23.3°C 30.4°F-0.9°C 20% 12.0 mph SSW19.3 kmh SSW 16.8 mph27.0 kmh 29.82 in1009.8 mb 0.00 in0.0 mm 0.00 in0.0 mm 0.00 in0.0 mm
12:45 PM 73.7°F23.2°C 31.3°F-0.4°C 21% 10.9 mph S17.5 kmh S 13.6 mph21.9 kmh 29.84 in1010.5 mb 0.00 in0.0 mm 0.00 in0.0 mm 0.00 in0.0 mm
12:30 PM 73.1°F22.8°C 32.0°F0.0°C 22% 13.7 mph S22.0 kmh S 20.6 mph33.2 kmh 29.84 in1010.5 mb 0.00 in0.0 mm 0.00 in0.0 mm 0.00 in0.0 mm
12:15 PM 72.6°F22.6°C 33.7°F0.9°C 24% 13.6 mph S21.9 kmh S 17.4 mph28.0 kmh 29.86 in1011.2 mb 0.00 in0.0 mm 0.00 in0.0 mm 0.00 in0.0 mm
12:00 PM 72.6°F22.6°C 33.7°F0.9°C 24% 11.2 mph S18.0 kmh S 15.2 mph24.5 kmh 29.86 in1011.2 mb 0.00 in0.0 mm 0.00 in0.0 mm 0.00 in0.0 mm
11:45 AM 72.2°F22.3°C 33.4°F0.8°C 24% 9.9 mph SSW15.9 kmh SSW 13.6 mph21.9 kmh 29.87 in1011.5 mb 0.00 in0.0 mm 0.00 in0.0 mm 0.00 in0.0 mm
11:30 AM 71.7°F22.1°C 34.9°F1.6°C 26% 9.9 mph S15.9 kmh S 15.2 mph24.5 kmh 29.87 in1011.5 mb 0.00 in0.0 mm 0.00 in0.0 mm 0.00 in0.0 mm
11:15 AM 70.8°F21.6°C 35.1°F1.7°C 27% 9.9 mph S15.9 kmh S 15.9 mph25.6 kmh 29.88 in1011.9 mb 0.00 in0.0 mm 0.00 in0.0 mm 0.00 in0.0 mm
11:00 AM 69.2°F20.7°C 37.2°F2.9°C 31% 12.0 mph SSW19.3 kmh SSW 15.9 mph25.6 kmh 29.89 in1012.2 mb 0.00 in0.0 mm 0.00 in0.0 mm 0.00 in0.0 mm
10:45 AM 68.8°F20.4°C 37.7°F3.2°C 32% 9.8 mph S15.8 kmh S 13.0 mph20.9 kmh 29.88 in1011.9 mb 0.00 in0.0 mm 0.00 in0.0 mm 0.00 in0.0 mm
10:30 AM 67.5°F19.7°C 38.2°F3.4°C 34% 11.6 mph SW18.7 kmh SW 15.2 mph24.5 kmh 29.89 in1012.2 mb 0.00 in0.0 mm 0.00 in0.0 mm 0.00 in0.0 mm
10:15 AM 66.1°F18.9°C 38.4°F3.6°C 36% 11.7 mph S18.8 kmh S 15.2 mph24.5 kmh 29.89 in1012.2 mb 0.00 in0.0 mm 0.00 in0.0 mm 0.00 in0.0 mm
10:00 AM 64.7°F18.2°C 39.8°F4.3°C 40% 10.6 mph S17.1 kmh S 15.2 mph24.5 kmh 29.90 in1012.5 mb 0.00 in0.0 mm 0.00 in0.0 mm 0.00 in0.0 mm
09:45 AM 63.0°F17.2°C 39.6°F4.2°C 42% 11.4 mph SSW18.3 kmh SSW 15.2 mph24.5 kmh 29.90 in1012.5 mb 0.00 in0.0 mm 0.00 in0.0 mm 0.00 in0.0 mm
09:30 AM 62.3°F16.8°C 40.7°F4.8°C 45% 8.3 mph S13.4 kmh S 15.2 mph24.5 kmh 29.91 in1012.9 mb 0.00 in0.0 mm 0.00 in0.0 mm 0.00 in0.0 mm
09:15 AM 61.8°F16.6°C 40.2°F4.6°C 45% 8.7 mph SSW14.0 kmh SSW 13.0 mph20.9 kmh 29.91 in1012.9 mb 0.00 in0.0 mm 0.00 in0.0 mm 0.00 in0.0 mm
09:00 AM 61.1°F16.2°C 40.7°F4.8°C 47% 7.9 mph SW12.7 kmh SW 11.4 mph18.3 kmh 29.91 in1012.9 mb 0.00 in0.0 mm 0.00 in0.0 mm 0.00 in0.0 mm
08:45 AM 60.9°F16.1°C 40.5°F4.7°C 47% 9.1 mph S14.6 kmh S 13.0 mph20.9 kmh 29.91 in1012.9 mb 0.00 in0.0 mm 0.00 in0.0 mm 0.00 in0.0 mm
08:30 AM 60.3°F15.7°C 40.6°F4.8°C 48% 8.5 mph SW13.7 kmh SW 10.7 mph17.2 kmh 29.91 in1012.9 mb 0.00 in0.0 mm 0.00 in0.0 mm 0.00 in0.0 mm
08:15 AM 60.2°F15.7°C 40.9°F4.9°C 49% 8.4 mph S13.5 kmh S 11.4 mph18.3 kmh 29.90 in1012.5 mb 0.00 in0.0 mm 0.00 in0.0 mm 0.00 in0.0 mm
08:00 AM 59.8°F15.4°C 40.6°F4.8°C 49% 9.7 mph S15.6 kmh S 12.1 mph19.5 kmh 29.90 in1012.5 mb 0.00 in0.0 mm 0.00 in0.0 mm 0.00 in0.0 mm
07:45 AM 59.4°F15.2°C 41.8°F5.4°C 52% 5.9 mph S9.5 kmh S 8.3 mph13.4 kmh 29.90 in1012.5 mb 0.00 in0.0 mm 0.00 in0.0 mm 0.00 in0.0 mm
07:30 AM 58.7°F14.8°C 41.6°F5.3°C 53% 4.9 mph S7.9 kmh S 6.9 mph11.1 kmh 29.89 in1012.2 mb 0.00 in0.0 mm 0.00 in0.0 mm 0.00 in0.0 mm
07:15 AM 58.2°F14.6°C 42.1°F5.6°C 55% 5.3 mph S8.5 kmh S 6.9 mph11.1 kmh 29.90 in1012.5 mb 0.00 in0.0 mm 0.00 in0.0 mm 0.00 in0.0 mm
07:00 AM 57.6°F14.2°C 42.5°F5.8°C 57% 5.5 mph S8.9 kmh S 6.9 mph11.1 kmh 29.90 in1012.5 mb 0.00 in0.0 mm 0.00 in0.0 mm 0.00 in0.0 mm
06:45 AM 57.3°F14.1°C 42.6°F5.9°C 58% 5.4 mph S8.7 kmh S 9.8 mph15.8 kmh 29.90 in1012.5 mb 0.00 in0.0 mm 0.00 in0.0 mm 0.00 in0.0 mm
06:30 AM 56.9°F13.8°C 43.2°F6.2°C 60% 5.1 mph S8.2 kmh S 6.9 mph11.1 kmh 29.89 in1012.2 mb 0.00 in0.0 mm 0.00 in0.0 mm 0.00 in0.0 mm
06:15 AM 56.6°F13.7°C 43.3°F6.3°C 61% 3.7 mph S6.0 kmh S 4.5 mph7.2 kmh 29.89 in1012.2 mb 0.00 in0.0 mm 0.00 in0.0 mm 0.00 in0.0 mm
06:00 AM 56.2°F13.4°C 44.2°F6.8°C 64% 3.8 mph S6.1 kmh S 5.4 mph8.7 kmh 29.89 in1012.2 mb 0.00 in0.0 mm 0.00 in0.0 mm 0.00 in0.0 mm
05:45 AM 55.1°F12.8°C 44.0°F6.7°C 66% 3.1 mph S5.0 kmh S 5.4 mph8.7 kmh 29.89 in1012.2 mb 0.00 in0.0 mm 0.00 in0.0 mm 0.00 in0.0 mm
05:30 AM 54.8°F12.7°C 43.6°F6.4°C 66% 1.7 mph S2.7 kmh S 3.8 mph6.1 kmh 29.89 in1012.2 mb 0.00 in0.0 mm 0.00 in0.0 mm 0.00 in0.0 mm
05:15 AM 54.8°F12.7°C 43.6°F6.4°C 66% 1.5 mph S2.4 kmh S 2.2 mph3.5 kmh 29.89 in1012.2 mb 0.00 in0.0 mm 0.00 in0.0 mm 0.00 in0.0 mm
05:00 AM 55.3°F12.9°C 43.7°F6.5°C 65% 0.6 mph S1.0 kmh S 2.2 mph3.5 kmh 29.89 in1012.2 mb 0.00 in0.0 mm 0.00 in0.0 mm 0.00 in0.0 mm
04:45 AM 55.7°F13.2°C 43.7°F6.5°C 64% Calm Calm -- 29.89 in1012.2 mb 0.00 in0.0 mm 0.00 in0.0 mm 0.00 in0.0 mm
04:30 AM 56.0°F13.3°C 44.0°F6.7°C 64% 1.2 mph S1.9 kmh S 2.2 mph3.5 kmh 29.89 in1012.2 mb 0.00 in0.0 mm 0.00 in0.0 mm 0.00 in0.0 mm
04:15 AM 56.0°F13.3°C 43.6°F6.4°C 63% 1.1 mph S1.8 kmh S 2.2 mph3.5 kmh 29.89 in1012.2 mb 0.00 in0.0 mm 0.00 in0.0 mm 0.00 in0.0 mm
04:00 AM 56.4°F13.6°C 43.9°F6.6°C 63% 0.2 mph S0.3 kmh S 1.6 mph2.6 kmh 29.89 in1012.2 mb 0.00 in0.0 mm 0.00 in0.0 mm 0.00 in0.0 mm
03:45 AM 56.9°F13.8°C 44.0°F6.7°C 62% Calm Calm -- 29.89 in1012.2 mb 0.00 in0.0 mm 0.00 in0.0 mm 0.00 in0.0 mm
03:30 AM 57.5°F14.2°C 44.1°F6.7°C 61% Calm Calm -- 29.89 in1012.2 mb 0.00 in0.0 mm 0.00 in0.0 mm 0.00 in0.0 mm
03:15 AM 58.2°F14.6°C 44.4°F6.9°C 60% 0.6 mph N1.0 kmh N 2.2 mph3.5 kmh 29.89 in1012.2 mb 0.00 in0.0 mm 0.00 in0.0 mm 0.00 in0.0 mm
03:00 AM 58.7°F14.8°C 44.9°F7.2°C 60% 2.3 mph S3.7 kmh S 5.4 mph8.7 kmh 29.89 in1012.2 mb 0.00 in0.0 mm 0.00 in0.0 mm 0.00 in0.0 mm
02:45 AM 58.9°F14.9°C 44.6°F7.0°C 59% 2.5 mph SSW4.0 kmh SSW 3.1 mph5.0 kmh 29.89 in1012.2 mb 0.00 in0.0 mm 0.00 in0.0 mm 0.00 in0.0 mm
02:30 AM 59.6°F15.3°C 45.3°F7.4°C 59% 2.1 mph S3.4 kmh S 3.1 mph5.0 kmh 29.90 in1012.5 mb 0.00 in0.0 mm 0.00 in0.0 mm 0.00 in0.0 mm
02:15 AM 59.6°F15.3°C 45.3°F7.4°C 59% 2.6 mph S4.2 kmh S 3.8 mph6.1 kmh 29.90 in1012.5 mb 0.00 in0.0 mm 0.00 in0.0 mm 0.00 in0.0 mm
02:00 AM 59.4°F15.2°C 45.1°F7.3°C 59% 3.5 mph S5.6 kmh S 3.8 mph6.1 kmh 29.91 in1012.9 mb 0.00 in0.0 mm 0.00 in0.0 mm 0.00 in0.0 mm
01:45 AM 59.4°F15.2°C 45.1°F7.3°C 59% 2.5 mph S4.0 kmh S 3.8 mph6.1 kmh 29.91 in1012.9 mb 0.00 in0.0 mm 0.00 in0.0 mm 0.00 in0.0 mm
01:30 AM 59.1°F15.1°C 45.2°F7.3°C 60% 2.6 mph S4.2 kmh S 3.8 mph6.1 kmh 29.91 in1012.9 mb 0.00 in0.0 mm 0.00 in0.0 mm 0.00 in0.0 mm
01:15 AM 58.4°F14.7°C 45.0°F7.2°C 61% 3.1 mph S5.0 kmh S 3.8 mph6.1 kmh 29.91 in1012.9 mb 0.00 in0.0 mm 0.00 in0.0 mm 0.00 in0.0 mm
01:00 AM 58.5°F14.7°C 45.1°F7.3°C 61% 2.8 mph S4.5 kmh S 3.8 mph6.1 kmh 29.91 in1012.9 mb 0.00 in0.0 mm 0.00 in0.0 mm 0.00 in0.0 mm
12:45 AM 58.5°F14.7°C 44.3°F6.8°C 59% 1.1 mph S1.8 kmh S 2.2 mph3.5 kmh 29.91 in1012.9 mb 0.00 in0.0 mm 0.00 in0.0 mm 0.00 in0.0 mm
12:30 AM 59.3°F15.2°C 44.9°F7.2°C 59% 1.0 mph ESE1.6 kmh ESE 2.2 mph3.5 kmh 29.91 in1012.9 mb 0.00 in0.0 mm 0.00 in0.0 mm 0.00 in0.0 mm
12:15 AM 59.6°F15.3°C 45.3°F7.4°C 59% 2.3 mph SSW3.7 kmh SSW 3.8 mph6.1 kmh 29.91 in1012.9 mb 0.00 in0.0 mm 0.00 in0.0 mm 0.00 in0.0 mm
12:00 AM 59.6°F15.3°C 45.3°F7.4°C 59% 1.9 mph SW3.1 kmh SW 3.1 mph5.0 kmh 29.91 in1012.9 mb 0.00 in0.0 mm 0.00 in0.0 mm 0.00 in0.0 mm